Time;durP1;ratioP1;P1;durP2;ratioP2;P2;SDS_P1;SDS_P2;PMS_P1;PMS_P2;Temp;Humidity;BMP_temperature;BMP_pressure;BME280_temperature;BME280_humidity;BME280_pressure;Samples;Min_cycle;Max_cycle;Signal;HPM_P1;HPM_P2
2021/03/28 00:01:15;;;;;;;12.32;3.70;;;6.40;99.90;;;;;;5085347;28;20124;-67
2021/03/28 00:04:05;;;;;;;15.38;3.47;;;6.50;99.90;;;;;;5075050;28;20689;-68
2021/03/28 00:06:49;;;;;;;10.73;3.58;;;6.50;99.90;;;;;;5091287;28;20020;-66
2021/03/28 00:09:36;;;;;;;14.40;3.40;;;6.50;99.90;;;;;;5089328;28;20434;-69
2021/03/28 00:12:23;;;;;;;14.57;3.92;;;6.40;99.90;;;;;;5087941;28;20063;-67
2021/03/28 00:15:10;;;;;;;16.48;4.68;;;6.40;99.90;;;;;;5090717;28;20050;-66
2021/03/28 00:18:23;;;;;;;15.50;3.72;;;6.40;99.90;;;;;;5080353;28;20032;-66
2021/03/28 00:21:20;;;;;;;16.85;3.97;;;6.40;99.90;;;;;;5052724;28;20147;-67
2021/03/28 00:24:12;;;;;;;13.77;3.42;;;6.50;99.90;;;;;;5076094;28;20036;-67
2021/03/28 00:26:59;;;;;;;13.43;3.55;;;6.50;99.90;;;;;;5083610;28;20055;-67
2021/03/28 00:30:20;;;;;;;17.10;3.80;;;6.40;99.90;;;;;;5085537;28;20043;-67
2021/03/28 00:33:10;;;;;;;15.40;3.50;;;6.20;99.90;;;;;;5088669;28;20097;-67
2021/03/28 00:36:08;;;;;;;20.13;3.75;;;6.40;99.90;;;;;;5064504;28;20066;-67
2021/03/28 00:38:55;;;;;;;16.55;3.97;;;6.60;99.90;;;;;;5058111;28;20044;-68
2021/03/28 00:41:40;;;;;;;22.05;3.70;;;6.60;99.90;;;;;;5062012;28;20047;-68
2021/03/28 00:44:25;;;;;;;18.60;3.25;;;6.50;99.90;;;;;;5090270;28;20051;-66
2021/03/28 00:47:11;;;;;;;11.25;3.05;;;6.50;99.90;;;;;;5073860;28;20107;-67
2021/03/28 00:50:20;;;;;;;12.65;3.22;;;6.40;99.90;;;;;;5059194;28;20028;-67
2021/03/28 00:53:08;;;;;;;12.77;2.67;;;6.30;99.90;;;;;;5084781;28;20048;-67
2021/03/28 00:56:00;;;;;;;12.00;3.03;;;6.30;99.90;;;;;;5061658;28;20436;-67
2021/03/28 00:58:47;;;;;;;10.95;2.50;;;6.30;99.90;;;;;;5072373;28;20090;-67
2021/03/28 01:02:20;;;;;;;13.18;2.80;;;6.30;99.90;;;;;;5068479;28;20070;-67
2021/03/28 01:05:09;;;;;;;14.50;3.58;;;6.30;99.90;;;;;;5050165;28;20067;-67
2021/03/28 01:08:07;;;;;;;17.05;3.33;;;6.30;99.90;;;;;;5069664;28;20116;-67
2021/03/28 01:11:07;;;;;;;14.75;3.63;;;6.30;99.90;;;;;;5067578;28;20039;-67
2021/03/28 01:14:15;;;;;;;13.15;2.80;;;6.30;99.90;;;;;;5069730;28;20051;-67
2021/03/28 01:16:59;;;;;;;15.05;3.33;;;6.20;99.90;;;;;;5069176;28;20036;-67
2021/03/28 01:20:00;;;;;;;10.32;3.10;;;6.20;99.90;;;;;;5085976;28;20078;-67
2021/03/28 01:23:02;;;;;;;11.65;2.75;;;6.10;99.90;;;;;;5067341;28;20035;-67
2021/03/28 01:26:09;;;;;;;16.40;2.63;;;6.10;99.90;;;;;;5086094;28;20079;-67
2021/03/28 01:28:59;;;;;;;9.40;2.45;;;6.10;99.90;;;;;;5052754;28;20079;-67
2021/03/28 01:32:03;;;;;;;13.60;2.85;;;6.10;99.90;;;;;;5070229;28;20052;-67
2021/03/28 01:34:52;;;;;;;12.52;3.60;;;6.10;99.90;;;;;;5065912;28;20111;-67
2021/03/28 01:38:11;;;;;;;18.10;3.42;;;6.10;99.90;;;;;;5085590;28;20106;-67
2021/03/28 01:41:21;;;;;;;16.88;3.47;;;6.10;99.90;;;;;;5069889;28;20135;-67
2021/03/28 01:44:21;;;;;;;16.10;3.28;;;6.10;99.90;;;;;;5070732;28;20452;-67
2021/03/28 01:47:49;;;;;;;11.63;2.97;;;6.10;99.90;;;;;;5082293;28;20158;-67
2021/03/28 01:50:42;;;;;;;14.20;2.78;;;6.10;99.90;;;;;;5067730;28;20094;-67
2021/03/28 01:53:51;;;;;;;12.10;2.78;;;6.10;99.90;;;;;;5068971;28;20508;-67
2021/03/28 01:57:08;;;;;;;13.95;3.20;;;6.10;99.90;;;;;;5065903;28;20024;-67
2021/03/28 02:00:20;;;;;;;14.98;3.58;;;6.10;99.90;;;;;;5068495;28;20524;-66
2021/03/28 02:03:26;;;;;;;15.23;3.45;;;6.10;99.90;;;;;;5078488;28;20036;-67
2021/03/28 02:06:28;;;;;;;14.57;3.55;;;6.10;99.90;;;;;;5080363;28;20031;-67
2021/03/28 02:09:52;;;;;;;16.67;3.17;;;6.10;99.90;;;;;;5067065;28;20036;-67
2021/03/28 02:13:13;;;;;;;14.70;2.92;;;6.10;99.90;;;;;;5051040;28;20062;-67
2021/03/28 02:16:31;;;;;;;12.48;2.90;;;6.10;99.90;;;;;;5089667;28;20020;-67
2021/03/28 02:19:27;;;;;;;13.60;3.17;;;6.10;99.90;;;;;;5072666;28;20097;-67
2021/03/28 02:22:16;;;;;;;12.82;3.33;;;6.10;99.90;;;;;;5066781;28;20504;-67
2021/03/28 02:25:18;;;;;;;16.00;3.25;;;6.10;99.90;;;;;;5064454;28;20074;-68
2021/03/28 02:28:11;;;;;;;14.43;2.88;;;6.10;99.90;;;;;;5089035;28;20134;-68
2021/03/28 02:31:04;;;;;;;12.73;3.20;;;6.00;99.90;;;;;;5063367;28;20491;-67
2021/03/28 02:34:00;;;;;;;11.57;2.85;;;6.00;99.90;;;;;;5073993;28;20047;-67
2021/03/28 02:37:01;;;;;;;15.40;3.10;;;5.90;99.90;;;;;;5068471;28;20082;-67
2021/03/28 02:39:54;;;;;;;12.38;2.65;;;6.00;99.90;;;;;;5084286;28;20142;-67
2021/03/28 02:43:28;;;;;;;15.82;2.97;;;6.00;99.90;;;;;;5069274;28;20121;-67
2021/03/28 02:46:24;;;;;;;10.70;2.80;;;5.90;99.90;;;;;;5068286;28;20430;-67
2021/03/28 02:49:38;;;;;;;16.48;3.80;;;5.90;99.90;;;;;;5069077;28;20025;-67
2021/03/28 02:52:51;;;;;;;15.38;2.75;;;5.90;99.90;;;;;;5068496;28;20508;-67
2021/03/28 02:55:40;;;;;;;11.87;3.40;;;5.90;99.90;;;;;;5064313;28;20520;-67
2021/03/28 02:58:59;;;;;;;14.68;3.70;;;5.90;99.90;;;;;;5065793;28;20832;-67
2021/03/28 03:02:11;;;;;;;16.20;3.78;;;5.90;99.90;;;;;;5068050;28;20051;-67
2021/03/28 03:05:05;;;;;;;17.85;3.13;;;5.80;99.90;;;;;;5069508;28;20103;-67
2021/03/28 03:08:10;;;;;;;14.43;2.65;;;5.70;99.90;;;;;;5066107;28;20032;-67
2021/03/28 03:11:08;;;;;;;17.50;2.80;;;5.70;99.90;;;;;;5084416;28;20043;-67
2021/03/28 03:14:16;;;;;;;15.27;2.90;;;5.60;99.90;;;;;;5068496;28;20030;-67
2021/03/28 03:17:29;;;;;;;12.30;2.92;;;5.40;99.90;;;;;;5072314;28;20607;-67
2021/03/28 03:20:19;;;;;;;12.35;3.65;;;5.40;99.90;;;;;;5083746;28;20029;-67
2021/03/28 03:23:24;;;;;;;14.93;3.58;;;5.30;99.90;;;;;;5076273;28;20035;-67
2021/03/28 03:26:42;;;;;;;11.77;3.42;;;5.20;99.90;;;;;;5075679;28;20107;-67
2021/03/28 03:29:58;;;;;;;20.05;4.05;;;5.10;99.90;;;;;;5084590;28;20032;-67
2021/03/28 03:33:19;;;;;;;14.05;3.28;;;5.00;99.90;;;;;;5083217;28;20400;-67
2021/03/28 03:36:36;;;;;;;15.85;4.07;;;4.90;99.90;;;;;;5088729;28;20218;-67
2021/03/28 03:40:13;;;;;;;18.63;3.95;;;4.90;99.90;;;;;;5072692;28;20463;-67
2021/03/28 03:43:07;;;;;;;13.35;3.00;;;4.90;99.90;;;;;;5079766;28;20551;-67
2021/03/28 03:46:20;;;;;;;16.08;3.08;;;4.90;99.90;;;;;;5074519;28;20028;-67
2021/03/28 03:49:28;;;;;;;16.55;3.35;;;4.80;99.90;;;;;;5075269;28;20107;-67
2021/03/28 03:52:47;;;;;;;13.38;3.15;;;4.70;99.90;;;;;;5079694;28;20043;-67
2021/03/28 03:55:59;;;;;;;15.23;3.40;;;4.60;99.90;;;;;;5084604;28;20028;-67
2021/03/28 03:59:21;;;;;;;16.83;3.08;;;4.50;99.90;;;;;;5078782;28;20065;-67
2021/03/28 04:02:29;;;;;;;13.90;2.90;;;4.40;99.90;;;;;;5081782;28;20122;-67
2021/03/28 04:05:43;;;;;;;15.52;3.25;;;4.30;99.90;;;;;;5073247;28;20054;-67
2021/03/28 04:08:40;;;;;;;14.35;3.15;;;4.30;99.90;;;;;;5059834;28;20065;-67
2021/03/28 04:12:10;;;;;;;12.02;3.13;;;4.30;99.90;;;;;;5076112;28;20039;-67
2021/03/28 04:15:14;;;;;;;12.15;3.20;;;4.30;99.90;;;;;;5068258;28;20040;-67
2021/03/28 04:18:21;;;;;;;19.45;4.20;;;4.20;99.90;;;;;;5091941;28;20056;-67
2021/03/28 04:22:02;;;;;;;17.83;4.05;;;4.20;99.90;;;;;;4988988;28;20081;-67
2021/03/28 04:25:33;;;;;;;19.67;3.28;;;4.20;99.90;;;;;;4990365;28;20034;-67
2021/03/28 04:28:45;;;;;;;14.02;3.38;;;4.30;99.90;;;;;;4986049;28;20026;-67
2021/03/28 04:32:17;;;;;;;14.30;3.42;;;4.30;99.90;;;;;;4989768;28;20039;-67
2021/03/28 04:35:40;;;;;;;17.00;4.00;;;4.20;99.90;;;;;;5068485;28;20045;-68
2021/03/28 04:39:08;;;;;;;16.15;4.03;;;4.10;99.90;;;;;;5053475;28;20055;-68
2021/03/28 04:42:39;;;;;;;;;;;4.00;99.90;;;;;;5079688;28;20115;-67
2021/03/28 04:45:41;;;;;;;12.70;4.00;;;3.80;99.90;;;;;;5051754;28;19935;-67
2021/03/28 04:49:03;;;;;;;12.57;4.03;;;3.70;99.90;;;;;;5043223;28;20041;-67
2021/03/28 04:52:42;;;;;;;11.32;3.90;;;3.70;99.90;;;;;;5036519;28;20075;-67
2021/03/28 04:55:45;;;;;;;12.32;3.42;;;3.60;99.90;;;;;;5046445;28;20033;-67
2021/03/28 04:59:07;;;;;;;16.70;4.03;;;3.60;99.90;;;;;;5034280;28;20040;-68
2021/03/28 05:02:43;;;;;;;14.70;3.42;;;3.50;99.90;;;;;;5029420;28;20431;-67
2021/03/28 05:05:57;;;;;;;13.40;2.63;;;3.60;99.90;;;;;;5058660;28;20465;-67
2021/03/28 05:09:47;;;;;;;17.23;3.00;;;3.70;99.90;;;;;;5066435;28;20023;-67
2021/03/28 05:12:50;;;;;;;12.45;3.13;;;3.60;99.90;;;;;;5074027;28;20051;-67
2021/03/28 05:16:07;;;;;;;18.63;2.47;;;3.60;99.90;;;;;;5071300;28;20032;-67
2021/03/28 05:19:25;;;;;;;16.38;3.03;;;3.70;99.90;;;;;;5051330;28;20102;-67
2021/03/28 05:22:59;;;;;;;13.75;2.70;;;3.70;99.90;;;;;;5061088;28;20040;-67
2021/03/28 05:26:32;;;;;;;13.43;3.30;;;3.70;99.90;;;;;;5049169;28;20466;-67
2021/03/28 05:29:41;;;;;;;15.65;3.15;;;3.70;99.90;;;;;;5071150;28;20035;-67
2021/03/28 05:33:37;;;;;;;13.93;3.55;;;3.80;99.90;;;;;;5064651;28;20036;-67
2021/03/28 05:37:01;;;;;;;10.82;3.08;;;3.80;99.90;;;;;;5054312;28;20041;-67
2021/03/28 05:40:12;;;;;;;14.52;4.47;;;3.80;99.90;;;;;;5071385;28;20214;-67
2021/03/28 05:43:35;;;;;;;16.80;5.13;;;3.80;99.90;;;;;;5063992;28;20039;-67
2021/03/28 05:47:15;;;;;;;15.23;4.13;;;3.90;99.90;;;;;;5051357;28;20036;-67
2021/03/28 05:50:44;;;;;;;14.70;4.22;;;3.90;99.90;;;;;;5066243;28;20019;-67
2021/03/28 05:53:56;;;;;;;14.88;3.45;;;4.00;99.90;;;;;;5056726;28;20033;-67
2021/03/28 05:57:04;;;;;;;16.35;3.50;;;4.20;99.90;;;;;;5070104;28;20235;-67
2021/03/28 06:00:20;;;;;;;17.05;3.30;;;4.30;99.90;;;;;;5050984;28;20028;-67
2021/03/28 06:03:19;;;;;;;15.93;2.80;;;4.40;99.90;;;;;;5077276;28;20545;-67
2021/03/28 06:06:59;;;;;;;19.90;4.30;;;4.60;99.90;;;;;;5070238;28;20039;-67
2021/03/28 06:10:17;;;;;;;9.57;2.90;;;4.70;99.90;;;;;;5069157;28;20107;-67
2021/03/28 06:13:32;;;;;;;15.55;3.42;;;4.90;99.90;;;;;;5051116;28;20091;-67
2021/03/28 06:16:57;;;;;;;15.18;2.47;;;5.00;99.90;;;;;;5065789;28;20424;-68
2021/03/28 06:20:25;;;;;;;11.57;2.17;;;5.20;99.90;;;;;;5066417;28;20458;-66
2021/03/28 06:23:49;;;;;;;18.20;3.60;;;5.30;99.90;;;;;;5063310;28;20583;-67
2021/03/28 06:27:03;;;;;;;15.70;3.92;;;5.20;99.90;;;;;;5065764;28;20108;-67
2021/03/28 06:30:23;;;;;;;16.00;4.05;;;5.20;99.90;;;;;;5051143;28;20036;-67
2021/03/28 06:33:34;;;;;;;16.88;3.75;;;5.10;99.90;;;;;;5074210;28;20052;-67
2021/03/28 06:37:09;;;;;;;14.20;2.85;;;5.10;99.90;;;;;;5085258;28;20111;-67
2021/03/28 06:39:57;;;;;;;17.45;6.07;;;5.00;99.90;;;;;;5049100;28;20481;-66
2021/03/28 06:42:47;;;;;;;16.90;6.60;;;5.00;99.90;;;;;;5084186;28;20025;-67
2021/03/28 06:46:13;;;;;;;16.05;5.03;;;5.00;99.90;;;;;;5053217;28;20021;-67
2021/03/28 06:49:19;;;;;;;16.35;4.35;;;4.90;99.90;;;;;;5081944;28;20048;-67
2021/03/28 06:52:24;;;;;;;15.75;3.20;;;5.00;99.90;;;;;;5086903;28;20101;-67
2021/03/28 06:55:45;;;;;;;13.82;3.17;;;5.10;99.90;;;;;;5084293;28;20116;-67
2021/03/28 06:59:03;;;;;;;20.50;4.82;;;5.20;99.90;;;;;;5063872;28;20310;-67
2021/03/28 07:02:01;;;;;;;21.25;5.25;;;5.30;99.90;;;;;;5069697;28;20039;-67
2021/03/28 07:05:23;;;;;;;14.30;3.00;;;5.30;99.90;;;;;;5069085;28;20043;-67
2021/03/28 07:08:50;;;;;;;16.55;2.70;;;5.50;99.90;;;;;;5066405;28;20024;-67
2021/03/28 07:12:23;;;;;;;14.57;3.25;;;5.60;99.90;;;;;;5092667;28;20036;-67
2021/03/28 07:15:30;;;;;;;11.90;2.13;;;5.80;99.90;;;;;;5037447;28;20037;-67
2021/03/28 07:18:36;;;;;;;11.40;1.70;;;6.00;99.90;;;;;;5066169;28;20112;-67
2021/03/28 07:22:06;;;;;;;11.40;2.10;;;6.10;99.90;;;;;;5084722;28;20032;-67
2021/03/28 07:25:28;;;;;;;13.60;3.35;;;6.10;99.90;;;;;;5089404;28;20032;-67
2021/03/28 07:29:21;;;;;;;11.73;2.92;;;6.10;99.90;;;;;;5089666;28;20073;-67
2021/03/28 07:32:31;;;;;;;16.75;2.50;;;6.30;99.90;;;;;;5074679;28;20484;-66
2021/03/28 07:35:30;;;;;;;11.15;1.98;;;6.50;99.90;;;;;;5051550;28;20043;-67
2021/03/28 07:39:10;;;;;;;16.30;2.70;;;6.50;99.90;;;;;;5061713;28;20551;-67
2021/03/28 07:42:26;;;;;;;15.05;2.78;;;6.70;99.90;;;;;;5070934;28;20036;-67
2021/03/28 07:45:40;;;;;;;10.32;2.63;;;6.80;99.90;;;;;;5071312;28;20032;-67
2021/03/28 07:48:58;;;;;;;10.45;3.05;;;7.10;99.90;;;;;;5076320;28;20036;-67
2021/03/28 07:51:59;;;;;;;10.95;2.90;;;7.30;99.90;;;;;;5068592;28;20077;-67
2021/03/28 07:55:21;;;;;;;11.15;2.50;;;7.80;99.90;;;;;;5056555;28;20043;-67
2021/03/28 07:58:34;;;;;;;10.10;1.83;;;8.20;99.90;;;;;;5069079;28;20028;-67
2021/03/28 08:02:05;;;;;;;10.82;2.90;;;8.40;99.90;;;;;;5065579;28;20072;-67
2021/03/28 08:05:32;;;;;;;14.20;2.25;;;8.90;99.90;;;;;;5063899;28;20099;-68
2021/03/28 08:09:26;;;;;;;12.48;2.45;;;8.90;99.90;;;;;;5015586;28;20135;-68
2021/03/28 08:13:01;;;;;;;12.55;2.15;;;9.20;99.90;;;;;;5052845;28;20048;-67
2021/03/28 08:16:28;;;;;;;8.05;1.83;;;9.60;99.90;;;;;;5050884;28;20028;-67
2021/03/28 08:19:57;;;;;;;10.93;2.30;;;10.10;99.90;;;;;;5066037;28;20038;-68
2021/03/28 08:23:12;;;;;;;13.90;2.00;;;9.90;99.90;;;;;;5071840;28;20127;-67
2021/03/28 08:26:30;;;;;;;9.05;1.98;;;9.80;99.90;;;;;;5096852;28;20464;-67
2021/03/28 08:30:11;;;;;;;10.75;2.00;;;10.00;99.90;;;;;;5074764;28;20105;-67
2021/03/28 08:33:26;;;;;;;10.55;2.70;;;10.40;99.90;;;;;;5055009;28;20028;-67
2021/03/28 08:36:53;;;;;;;11.45;2.33;;;10.40;99.90;;;;;;5071724;28;20032;-67
2021/03/28 08:40:09;;;;;;;10.90;1.92;;;10.70;99.90;;;;;;5066621;28;20085;-67
2021/03/28 08:43:19;;;;;;;7.75;1.55;;;10.50;99.90;;;;;;5055884;28;20060;-68
2021/03/28 08:46:50;;;;;;;9.07;1.65;;;10.30;99.90;;;;;;5071873;28;20051;-67
2021/03/28 08:50:16;;;;;;;9.75;1.70;;;10.60;99.90;;;;;;5059524;28;20028;-67
2021/03/28 08:53:52;;;;;;;12.32;2.30;;;10.50;99.90;;;;;;5077990;28;20033;-67
2021/03/28 08:56:56;;;;;;;10.63;1.80;;;10.80;99.90;;;;;;5053725;28;20043;-67
2021/03/28 09:00:04;;;;;;;9.55;1.90;;;11.00;99.90;;;;;;5053707;28;20332;-67
2021/03/28 09:03:15;;;;;;;9.82;2.65;;;11.10;99.90;;;;;;5056163;28;20127;-67
2021/03/28 09:06:32;;;;;;;9.07;1.65;;;11.50;99.90;;;;;;5073561;28;20105;-67
2021/03/28 09:09:58;;;;;;;12.73;2.25;;;11.90;99.90;;;;;;5070914;28;20495;-67
2021/03/28 09:13:13;;;;;;;7.00;1.80;;;11.60;99.90;;;;;;5088233;28;20359;-67
2021/03/28 09:17:02;;;;;;;9.75;1.80;;;11.60;99.90;;;;;;5091643;28;20141;-67
2021/03/28 09:20:19;;;;;;;11.50;2.10;;;12.00;99.90;;;;;;5034964;28;20548;-66
2021/03/28 09:23:17;;;;;;;11.88;1.92;;;12.40;99.90;;;;;;5085135;28;20040;-67
2021/03/28 09:26:35;;;;;;;8.70;2.00;;;12.20;99.90;;;;;;5053306;28;20028;-67
2021/03/28 09:29:33;;;;;;;7.82;1.55;;;12.10;99.90;;;;;;5071726;28;20031;-67
2021/03/28 09:32:46;;;;;;;8.88;1.50;;;12.00;99.90;;;;;;5057645;28;20055;-67
2021/03/28 09:35:35;;;;;;;6.32;1.27;;;12.20;99.90;;;;;;5056369;28;20068;-68
2021/03/28 09:39:33;;;;;;;7.97;1.50;;;12.10;99.90;;;;;;5023296;28;20038;-68
2021/03/28 09:43:01;;;;;;;7.85;1.60;;;12.70;99.90;;;;;;5032269;28;20581;-68
2021/03/28 09:45:58;;;;;;;10.87;1.90;;;12.80;99.90;;;;;;5087536;28;20020;-68
2021/03/28 09:49:11;;;;;;;6.65;1.15;;;13.50;99.20;;;;;;5051171;28;20107;-68
2021/03/28 09:52:52;;;;;;;7.85;1.40;;;13.00;99.90;;;;;;5027604;28;20044;-68
2021/03/28 09:56:07;;;;;;;8.07;1.23;;;12.50;99.90;;;;;;4991657;28;20060;-67
2021/03/28 09:59:21;;;;;;;7.57;1.70;;;12.60;99.90;;;;;;5012904;28;20044;-67
2021/03/28 10:02:35;;;;;;;6.03;1.10;;;12.80;99.90;;;;;;5013670;28;20033;-68
2021/03/28 10:05:34;;;;;;;6.47;1.38;;;13.20;94.40;;;;;;5007156;28;20033;-67
2021/03/28 10:08:41;;;;;;;6.05;1.48;;;12.90;95.60;;;;;;5007719;28;20483;-67
2021/03/28 10:11:31;;;;;;;10.05;2.00;;;12.40;96.00;;;;;;5009018;28;20076;-67
2021/03/28 10:14:45;;;;;;;6.72;1.35;;;12.80;98.20;;;;;;5008130;28;20036;-68
2021/03/28 10:18:17;;;;;;;7.15;1.20;;;13.60;95.00;;;;;;5001122;28;20429;-67
2021/03/28 10:21:35;;;;;;;7.85;1.45;;;14.00;92.30;;;;;;4991256;28;20041;-68
2021/03/28 10:24:42;;;;;;;6.40;1.17;;;14.30;87.00;;;;;;4991145;28;20034;-68
2021/03/28 10:27:57;;;;;;;8.65;1.30;;;13.20;90.20;;;;;;4990793;28;20064;-67
2021/03/28 10:31:24;;;;;;;7.82;1.50;;;13.00;93.40;;;;;;5069854;28;20481;-67
2021/03/28 10:35:08;;;;;;;6.35;1.00;;;13.10;93.80;;;;;;5032998;28;20406;-67
2021/03/28 10:38:22;;;;;;;6.13;1.48;;;12.80;98.80;;;;;;5065857;28;20113;-67
2021/03/28 10:41:47;;;;;;;6.40;1.38;;;11.90;99.10;;;;;;5069629;28;20097;-67
2021/03/28 10:44:57;;;;;;;7.40;1.30;;;12.00;99.90;;;;;;5073454;28;20090;-67
2021/03/28 10:48:38;;;;;;;10.18;1.60;;;12.20;99.90;;;;;;5068601;28;20036;-67
2021/03/28 10:51:54;;;;;;;9.02;1.45;;;12.20;99.90;;;;;;5082710;28;20029;-66
2021/03/28 10:54:48;;;;;;;8.43;1.33;;;11.90;99.90;;;;;;5063151;28;20029;-66
2021/03/28 10:58:13;;;;;;;6.60;1.15;;;11.80;99.90;;;;;;5067862;28;20413;-67
2021/03/28 11:02:00;;;;;;;7.85;1.40;;;11.90;99.90;;;;;;4968751;28;20392;-67
2021/03/28 11:05:21;;;;;;;7.55;1.35;;;11.90;99.90;;;;;;4981758;28;20060;-67
2021/03/28 11:08:44;;;;;;;7.13;1.45;;;12.10;99.90;;;;;;5005814;28;20086;-67
2021/03/28 11:11:56;;;;;;;7.10;1.20;;;12.20;99.90;;;;;;5023406;28;20105;-67
2021/03/28 11:15:03;;;;;;;6.15;1.10;;;12.50;99.20;;;;;;5064335;28;20055;-68
2021/03/28 11:18:35;;;;;;;8.63;1.70;;;12.50;99.40;;;;;;5080001;28;20440;-66
2021/03/28 11:22:04;;;;;;;;;;;12.50;99.90;;;;;;5053290;28;20560;-66
2021/03/28 11:25:31;;;;;;;7.38;1.10;;;12.30;99.90;;;;;;5071911;28;20006;-65
2021/03/28 11:28:51;;;;;;;5.38;1.20;;;12.30;99.90;;;;;;4998652;28;20041;-66
2021/03/28 11:32:23;;;;;;;8.95;1.50;;;12.50;99.90;;;;;;4987189;28;20080;-67
2021/03/28 11:36:07;;;;;;;11.68;1.52;;;12.50;99.90;;;;;;5024811;28;20167;-66
2021/03/28 11:39:30;;;;;;;6.43;1.27;;;12.40;99.90;;;;;;5026684;28;20073;-66
2021/03/28 11:42:25;;;;;;;8.80;1.38;;;12.50;99.90;;;;;;4953228;28;20060;-66
2021/03/28 11:45:45;;;;;;;6.68;1.38;;;12.50;99.90;;;;;;5029327;28;20091;-66
2021/03/28 11:48:44;;;;;;;6.28;1.23;;;12.60;99.90;;;;;;5025150;28;20029;-66
2021/03/28 11:51:52;;;;;;;5.22;0.98;;;12.60;99.90;;;;;;5013427;28;20061;-66
2021/03/28 11:55:13;;;;;;;6.43;1.33;;;12.60;98.80;;;;;;5016390;28;20029;-66
2021/03/28 11:58:31;;;;;;;6.85;1.35;;;12.60;99.90;;;;;;5043587;28;20334;-66
2021/03/28 12:01:57;;;;;;;7.65;1.33;;;12.70;99.90;;;;;;5072111;28;20036;-66
2021/03/28 12:05:10;;;;;;;6.95;1.02;;;13.00;99.90;;;;;;5085476;28;20044;-66
2021/03/28 12:08:14;;;;;;;11.05;1.10;;;13.10;98.10;;;;;;5071380;28;20058;-66
2021/03/28 12:11:47;;;;;;;5.97;1.17;;;13.10;99.90;;;;;;5071359;28;20039;-66
2021/03/28 12:14:52;;;;;;;5.03;1.10;;;13.10;99.80;;;;;;5084631;28;20052;-66
2021/03/28 12:18:16;;;;;;;10.68;1.70;;;13.10;98.90;;;;;;5076325;28;20493;-67
2021/03/28 12:21:32;;;;;;;10.00;1.73;;;13.10;98.10;;;;;;5072105;28;20082;-66
2021/03/28 12:24:37;;;;;;;8.20;1.30;;;13.10;99.90;;;;;;5077622;28;20060;-66
2021/03/28 12:27:42;;;;;;;6.28;1.30;;;13.20;97.30;;;;;;5092596;28;20453;-66
2021/03/28 12:30:43;;;;;;;6.93;1.35;;;13.20;99.90;;;;;;5054468;28;20112;-67
2021/03/28 12:33:50;;;;;;;7.65;1.38;;;13.50;98.90;;;;;;5074270;28;20044;-67
2021/03/28 12:37:07;;;;;;;10.90;1.63;;;13.30;97.70;;;;;;5073856;28;20532;-67
2021/03/28 12:40:37;;;;;;;6.40;1.33;;;13.40;99.50;;;;;;5059777;28;20221;-67
2021/03/28 12:44:01;;;;;;;7.13;1.33;;;13.90;99.90;;;;;;5082510;28;20043;-67
2021/03/28 12:47:07;;;;;;;7.00;1.00;;;13.80;97.90;;;;;;5060647;28;20039;-67
2021/03/28 12:50:13;;;;;;;6.70;1.20;;;13.70;98.80;;;;;;5091231;28;20181;-66
2021/03/28 12:53:28;;;;;;;12.30;1.30;;;14.00;97.70;;;;;;5072753;28;20406;-66
2021/03/28 12:56:32;;;;;;;8.93;1.42;;;14.30;97.30;;;;;;5071524;28;20087;-67
2021/03/28 12:59:40;;;;;;;6.95;1.88;;;14.50;94.50;;;;;;5086800;28;20146;-66
2021/03/28 13:02:37;;;;;;;5.82;1.40;;;14.60;90.70;;;;;;5072432;28;20031;-66
2021/03/28 13:05:49;;;;;;;11.32;1.58;;;14.80;95.10;;;;;;5066949;28;20036;-66
2021/03/28 13:09:17;;;;;;;9.55;1.60;;;15.00;95.10;;;;;;5052271;28;20039;-66
2021/03/28 13:12:25;;;;;;;7.85;1.67;;;15.20;86.50;;;;;;5077678;28;20047;-66
2021/03/28 13:15:36;;;;;;;7.88;1.67;;;16.70;78.40;;;;;;5076900;28;20493;-67
2021/03/28 13:18:38;;;;;;;6.45;1.30;;;17.80;66.60;;;;;;5032631;28;20033;-67
2021/03/28 13:21:41;;;;;;;10.88;1.67;;;18.20;60.10;;;;;;5067065;28;20082;-67
2021/03/28 13:24:47;;;;;;;7.38;1.90;;;18.80;59.20;;;;;;5070974;28;20044;-67
2021/03/28 13:27:58;;;;;;;9.40;1.95;;;18.40;57.80;;;;;;5082726;28;20214;-67
2021/03/28 13:30:51;;;;;;;5.32;1.42;;;18.20;57.60;;;;;;5084392;28;20501;-67
2021/03/28 13:33:58;;;;;;;7.13;1.67;;;18.30;57.80;;;;;;5069436;28;20039;-67
2021/03/28 13:37:23;;;;;;;13.77;7.30;;;18.20;58.00;;;;;;5003664;28;20043;-68
2021/03/28 13:40:50;;;;;;;6.47;1.40;;;18.80;55.60;;;;;;4987870;28;20057;-67
2021/03/28 13:44:11;;;;;;;10.70;1.42;;;19.30;53.00;;;;;;4985521;28;20053;-68
2021/03/28 13:47:05;;;;;;;9.27;1.55;;;20.20;52.30;;;;;;4984231;28;20139;-67
2021/03/28 13:50:35;;;;;;;6.78;1.08;;;20.70;50.40;;;;;;4994195;28;20044;-67
2021/03/28 13:53:40;;;;;;;8.30;1.63;;;20.10;49.80;;;;;;4988161;28;20034;-67
2021/03/28 13:56:52;;;;;;;8.30;1.80;;;20.30;49.10;;;;;;5078740;28;20028;-67
2021/03/28 14:00:32;;;;;;;7.78;1.60;;;20.80;46.90;;;;;;5070976;28;20444;-68
2021/03/28 14:03:28;;;;;;;9.60;1.90;;;20.90;47.50;;;;;;5054117;28;20086;-68
2021/03/28 14:06:35;;;;;;;8.60;1.80;;;20.60;47.20;;;;;;5093405;28;20036;-67
2021/03/28 14:09:44;;;;;;;5.35;1.20;;;19.90;49.90;;;;;;5069198;28;20043;-67
2021/03/28 14:13:23;;;;;;;8.98;1.50;;;20.40;50.60;;;;;;5083437;28;20184;-67
2021/03/28 14:16:20;;;;;;;11.18;1.88;;;19.80;49.90;;;;;;5052024;28;20043;-67
2021/03/28 14:19:23;;;;;;;6.32;1.70;;;18.80;51.60;;;;;;5068092;28;20372;-67
2021/03/28 14:22:41;;;;;;;5.97;1.55;;;19.90;50.10;;;;;;5080410;28;20414;-67
2021/03/28 14:25:56;;;;;;;7.05;1.50;;;19.80;50.00;;;;;;5070342;28;20085;-67
2021/03/28 14:28:53;;;;;;;6.35;1.42;;;19.90;47.60;;;;;;5063088;28;20037;-67
2021/03/28 14:32:25;;;;;;;6.63;1.63;;;19.90;47.30;;;;;;5068824;28;20055;-67
2021/03/28 14:35:34;;;;;;;11.10;2.90;;;19.80;47.90;;;;;;5046233;28;20044;-67
2021/03/28 14:38:55;;;;;;;7.20;1.65;;;19.80;48.50;;;;;;5067582;28;20090;-67
2021/03/28 14:42:22;;;;;;;8.85;1.83;;;18.80;49.90;;;;;;5049437;28;20079;-67
2021/03/28 14:45:28;;;;;;;8.02;1.58;;;18.40;51.00;;;;;;5065615;28;20171;-67
2021/03/28 14:48:48;;;;;;;8.52;2.88;;;17.90;53.40;;;;;;5084856;28;20124;-67
2021/03/28 14:52:00;;;;;;;6.70;1.45;;;18.30;52.20;;;;;;5086324;28;20482;-68
2021/03/28 14:55:17;;;;;;;6.05;1.70;;;18.50;53.40;;;;;;5067977;28;20040;-67
2021/03/28 14:58:17;;;;;;;8.68;2.58;;;18.00;53.20;;;;;;5031980;28;20103;-67
2021/03/28 15:01:44;;;;;;;;;;;17.50;54.40;;;;;;5068140;28;20027;-67
2021/03/28 15:05:11;;;;;;;10.70;3.17;;;18.20;54.10;;;;;;5037520;28;19966;-67
2021/03/28 15:08:28;;;;;;;6.03;1.70;;;18.80;51.90;;;;;;5082178;28;20159;-67
2021/03/28 15:11:36;;;;;;;7.50;1.60;;;18.70;52.20;;;;;;5065870;28;20074;-67
2021/03/28 15:14:56;;;;;;;10.48;1.60;;;20.00;49.90;;;;;;5059663;28;20063;-68
2021/03/28 15:17:58;;;;;;;10.68;1.92;;;19.40;49.60;;;;;;5065994;28;20482;-67
2021/03/28 15:21:30;;;;;;;10.93;2.72;;;19.00;50.40;;;;;;5056132;28;20067;-67
2021/03/28 15:24:32;;;;;;;8.40;2.13;;;18.40;51.40;;;;;;5061684;28;20086;-67
2021/03/28 15:27:43;;;;;;;7.65;1.80;;;18.70;52.90;;;;;;5059991;28;20065;-67
2021/03/28 15:31:19;;;;;;;10.35;1.90;;;19.00;50.70;;;;;;5060735;28;20036;-67
2021/03/28 15:34:30;;;;;;;9.15;1.90;;;18.50;52.00;;;;;;5046578;28;20400;-67
2021/03/28 15:37:56;;;;;;;9.45;1.80;;;17.40;54.70;;;;;;5074948;28;20035;-67
2021/03/28 15:41:19;;;;;;;11.75;3.22;;;17.20;54.90;;;;;;5071573;28;20029;-67
2021/03/28 15:44:24;;;;;;;6.63;1.58;;;16.30;58.00;;;;;;5086160;28;20028;-66
2021/03/28 15:47:45;;;;;;;10.07;1.92;;;16.20;58.60;;;;;;5070591;28;20032;-66
2021/03/28 15:50:52;;;;;;;6.78;1.98;;;16.20;58.90;;;;;;5070199;28;20040;-66
2021/03/28 15:54:07;;;;;;;11.00;2.53;;;16.10;60.60;;;;;;5078919;28;20021;-66
2021/03/28 15:57:16;;;;;;;10.52;1.73;;;16.30;61.70;;;;;;5083030;28;20027;-66
2021/03/28 16:00:19;;;;;;;7.38;1.55;;;15.90;61.00;;;;;;5059818;28;20036;-66
2021/03/28 16:03:55;;;;;;;7.32;1.33;;;15.40;63.30;;;;;;5085111;28;20078;-66
2021/03/28 16:07:07;;;;;;;11.77;2.65;;;15.30;65.60;;;;;;5067373;28;20024;-66
2021/03/28 16:10:09;;;;;;;6.93;1.52;;;15.00;69.40;;;;;;5071605;28;20039;-66
2021/03/28 16:13:49;;;;;;;11.07;1.95;;;15.00;72.30;;;;;;5048362;28;20028;-66
2021/03/28 16:17:00;;;;;;;10.07;1.90;;;15.10;76.10;;;;;;5047578;28;20064;-66
2021/03/28 16:20:20;;;;;;;9.32;1.90;;;14.60;83.10;;;;;;5086620;28;20043;-67
2021/03/28 16:23:07;;;;;;;5.63;1.23;;;14.40;85.10;;;;;;5095943;28;20064;-67
2021/03/28 16:25:59;;;;;;;11.45;2.30;;;14.40;88.70;;;;;;5091176;28;20055;-67
2021/03/28 16:28:54;;;;;;;13.02;3.17;;;14.20;95.70;;;;;;5088010;28;20203;-67
2021/03/28 16:32:03;;;;;;;8.53;1.43;;;14.10;98.10;;;;;;5078083;28;20040;-66
2021/03/28 16:35:02;;;;;;;8.02;1.70;;;14.00;94.80;;;;;;5052691;28;20330;-66
2021/03/28 16:38:12;;;;;;;10.85;2.15;;;14.00;97.30;;;;;;5074436;28;20032;-66
2021/03/28 16:41:23;;;;;;;7.55;2.22;;;14.00;98.40;;;;;;5074940;28;20027;-66
2021/03/28 16:44:22;;;;;;;10.32;1.63;;;13.90;99.20;;;;;;5051237;28;20127;-66